sensor_id;sensor_type;location;lat;lon;timestamp;temperature;humidity
4699;DHT22;33708;49.466;11.176;2023-02-01T00:00:23;4.90;99.90
4699;DHT22;33708;49.466;11.176;2023-02-01T00:02:49;5.00;99.90
4699;DHT22;33708;49.466;11.176;2023-02-01T00:05:14;4.90;99.90
4699;DHT22;33708;49.466;11.176;2023-02-01T00:07:40;5.00;99.90
4699;DHT22;33708;49.466;11.176;2023-02-01T00:10:06;5.10;99.90
4699;DHT22;33708;49.466;11.176;2023-02-01T00:12:32;5.00;99.90
4699;DHT22;33708;49.466;11.176;2023-02-01T00:14:58;4.80;99.90
4699;DHT22;33708;49.466;11.176;2023-02-01T00:17:24;5.00;99.90
4699;DHT22;33708;49.466;11.176;2023-02-01T00:19:50;4.90;99.90
4699;DHT22;33708;49.466;11.176;2023-02-01T00:22:16;4.90;99.90
4699;DHT22;33708;49.466;11.176;2023-02-01T00:24:41;4.90;99.90
4699;DHT22;33708;49.466;11.176;2023-02-01T00:27:07;4.90;99.90
4699;DHT22;33708;49.466;11.176;2023-02-01T00:29:32;5.00;99.90
4699;DHT22;33708;49.466;11.176;2023-02-01T00:31:58;4.90;99.90
4699;DHT22;33708;49.466;11.176;2023-02-01T00:34:24;5.00;99.90
4699;DHT22;33708;49.466;11.176;2023-02-01T00:36:49;5.10;99.90
4699;DHT22;33708;49.466;11.176;2023-02-01T00:39:15;5.00;99.90
4699;DHT22;33708;49.466;11.176;2023-02-01T00:41:41;5.10;99.90
4699;DHT22;33708;49.466;11.176;2023-02-01T00:44:07;5.10;99.90
4699;DHT22;33708;49.466;11.176;2023-02-01T00:46:33;5.10;99.90
4699;DHT22;33708;49.466;11.176;2023-02-01T00:48:58;5.10;99.90
4699;DHT22;33708;49.466;11.176;2023-02-01T00:51:27;5.10;99.90
4699;DHT22;33708;49.466;11.176;2023-02-01T00:53:53;5.10;99.90
4699;DHT22;33708;49.466;11.176;2023-02-01T00:56:19;5.10;99.90
4699;DHT22;33708;49.466;11.176;2023-02-01T00:58:45;5.10;99.90
4699;DHT22;33708;49.466;11.176;2023-02-01T01:01:16;5.10;99.90
4699;DHT22;33708;49.466;11.176;2023-02-01T01:03:44;5.20;99.90
4699;DHT22;33708;49.466;11.176;2023-02-01T01:06:13;5.20;99.90
4699;DHT22;33708;49.466;11.176;2023-02-01T01:08:40;5.10;99.90
4699;DHT22;33708;49.466;11.176;2023-02-01T01:11:14;5.10;99.90
4699;DHT22;33708;49.466;11.176;2023-02-01T01:13:41;5.10;99.90
4699;DHT22;33708;49.466;11.176;2023-02-01T01:16:08;5.00;99.90
4699;DHT22;33708;49.466;11.176;2023-02-01T01:18:34;5.10;99.90
4699;DHT22;33708;49.466;11.176;2023-02-01T01:21:01;5.00;99.90
4699;DHT22;33708;49.466;11.176;2023-02-01T01:23:27;5.20;99.90
4699;DHT22;33708;49.466;11.176;2023-02-01T01:25:53;5.10;99.90
4699;DHT22;33708;49.466;11.176;2023-02-01T01:28:19;5.10;99.90
4699;DHT22;33708;49.466;11.176;2023-02-01T01:30:45;5.10;99.90
4699;DHT22;33708;49.466;11.176;2023-02-01T01:33:10;5.00;99.90
4699;DHT22;33708;49.466;11.176;2023-02-01T01:35:36;5.00;99.90
4699;DHT22;33708;49.466;11.176;2023-02-01T01:38:02;5.00;99.90
4699;DHT22;33708;49.466;11.176;2023-02-01T01:40:29;4.90;99.90
4699;DHT22;33708;49.466;11.176;2023-02-01T01:42:55;4.90;99.90
4699;DHT22;33708;49.466;11.176;2023-02-01T01:45:27;4.80;99.90
4699;DHT22;33708;49.466;11.176;2023-02-01T01:47:59;4.90;99.90
4699;DHT22;33708;49.466;11.176;2023-02-01T01:50:36;5.00;99.90
4699;DHT22;33708;49.466;11.176;2023-02-01T01:53:06;4.80;99.90
4699;DHT22;33708;49.466;11.176;2023-02-01T01:55:36;4.90;99.90
4699;DHT22;33708;49.466;11.176;2023-02-01T01:58:05;4.90;99.90
4699;DHT22;33708;49.466;11.176;2023-02-01T02:00:32;5.00;99.90
4699;DHT22;33708;49.466;11.176;2023-02-01T02:03:03;5.00;99.90
4699;DHT22;33708;49.466;11.176;2023-02-01T02:05:31;5.00;99.90
4699;DHT22;33708;49.466;11.176;2023-02-01T02:07:59;5.00;99.90
4699;DHT22;33708;49.466;11.176;2023-02-01T02:10:26;5.00;99.90
4699;DHT22;33708;49.466;11.176;2023-02-01T02:13:13;5.00;99.90
4699;DHT22;33708;49.466;11.176;2023-02-01T02:15:56;5.10;99.90
4699;DHT22;33708;49.466;11.176;2023-02-01T02:18:31;5.00;99.90
4699;DHT22;33708;49.466;11.176;2023-02-01T02:21:14;5.10;99.90
4699;DHT22;33708;49.466;11.176;2023-02-01T02:27:02;5.10;99.90
4699;DHT22;33708;49.466;11.176;2023-02-01T02:32:21;5.10;99.90
4699;DHT22;33708;49.466;11.176;2023-02-01T02:38:02;5.10;99.90
4699;DHT22;33708;49.466;11.176;2023-02-01T02:43:13;5.10;99.90
4699;DHT22;33708;49.466;11.176;2023-02-01T02:46:14;5.10;99.90
4699;DHT22;33708;49.466;11.176;2023-02-01T02:49:15;5.20;99.90
4699;DHT22;33708;49.466;11.176;2023-02-01T02:51:45;5.20;99.90
4699;DHT22;33708;49.466;11.176;2023-02-01T02:54:36;5.20;99.90
4699;DHT22;33708;49.466;11.176;2023-02-01T02:58:00;5.10;99.90
4699;DHT22;33708;49.466;11.176;2023-02-01T03:00:22;5.10;99.90
4699;DHT22;33708;49.466;11.176;2023-02-01T03:03:07;5.10;99.90
4699;DHT22;33708;49.466;11.176;2023-02-01T03:05:52;5.00;99.90
4699;DHT22;33708;49.466;11.176;2023-02-01T03:08:25;5.10;99.90
4699;DHT22;33708;49.466;11.176;2023-02-01T03:18:52;5.10;99.90
4699;DHT22;33708;49.466;11.176;2023-02-01T03:21:26;5.10;99.90
4699;DHT22;33708;49.466;11.176;2023-02-01T03:23:53;5.10;99.90
4699;DHT22;33708;49.466;11.176;2023-02-01T03:26:23;5.00;99.90
4699;DHT22;33708;49.466;11.176;2023-02-01T03:29:13;5.00;99.90
4699;DHT22;33708;49.466;11.176;2023-02-01T03:31:39;4.80;99.90
4699;DHT22;33708;49.466;11.176;2023-02-01T03:34:05;4.90;99.90
4699;DHT22;33708;49.466;11.176;2023-02-01T03:36:37;4.70;99.90
4699;DHT22;33708;49.466;11.176;2023-02-01T03:39:15;4.70;99.90
4699;DHT22;33708;49.466;11.176;2023-02-01T03:41:54;4.70;99.90
4699;DHT22;33708;49.466;11.176;2023-02-01T03:49:30;4.90;99.90
4699;DHT22;33708;49.466;11.176;2023-02-01T03:51:59;5.00;99.90
4699;DHT22;33708;49.466;11.176;2023-02-01T03:54:27;4.90;99.90
4699;DHT22;33708;49.466;11.176;2023-02-01T03:56:56;5.00;99.90
4699;DHT22;33708;49.466;11.176;2023-02-01T03:59:23;5.00;99.90
4699;DHT22;33708;49.466;11.176;2023-02-01T04:01:49;5.00;99.90
4699;DHT22;33708;49.466;11.176;2023-02-01T04:04:15;5.10;99.90
4699;DHT22;33708;49.466;11.176;2023-02-01T04:06:46;5.00;99.90
4699;DHT22;33708;49.466;11.176;2023-02-01T04:09:12;5.00;99.90
4699;DHT22;33708;49.466;11.176;2023-02-01T04:11:37;5.10;99.90
4699;DHT22;33708;49.466;11.176;2023-02-01T04:14:03;5.10;99.90
4699;DHT22;33708;49.466;11.176;2023-02-01T04:16:30;5.00;99.90
4699;DHT22;33708;49.466;11.176;2023-02-01T04:18:57;5.10;99.90
4699;DHT22;33708;49.466;11.176;2023-02-01T04:21:24;5.00;99.90
4699;DHT22;33708;49.466;11.176;2023-02-01T04:23:50;5.10;99.90
4699;DHT22;33708;49.466;11.176;2023-02-01T04:26:16;5.10;99.90
4699;DHT22;33708;49.466;11.176;2023-02-01T04:28:42;5.00;99.90
4699;DHT22;33708;49.466;11.176;2023-02-01T04:31:08;5.00;99.90
4699;DHT22;33708;49.466;11.176;2023-02-01T04:33:33;5.10;99.90
4699;DHT22;33708;49.466;11.176;2023-02-01T04:35:59;5.10;99.90
4699;DHT22;33708;49.466;11.176;2023-02-01T04:38:25;5.20;99.90
4699;DHT22;33708;49.466;11.176;2023-02-01T04:40:50;5.10;99.90
4699;DHT22;33708;49.466;11.176;2023-02-01T04:43:17;5.10;99.90
4699;DHT22;33708;49.466;11.176;2023-02-01T04:45:47;5.10;99.90
4699;DHT22;33708;49.466;11.176;2023-02-01T04:48:14;5.10;99.90
4699;DHT22;33708;49.466;11.176;2023-02-01T04:50:40;4.90;99.90
4699;DHT22;33708;49.466;11.176;2023-02-01T04:53:06;4.80;99.90
4699;DHT22;33708;49.466;11.176;2023-02-01T04:55:31;4.80;99.90
4699;DHT22;33708;49.466;11.176;2023-02-01T04:57:57;4.70;99.90
4699;DHT22;33708;49.466;11.176;2023-02-01T05:00:22;4.60;99.90
4699;DHT22;33708;49.466;11.176;2023-02-01T05:02:48;4.60;99.90
4699;DHT22;33708;49.466;11.176;2023-02-01T05:05:13;4.60;99.90
4699;DHT22;33708;49.466;11.176;2023-02-01T05:07:39;4.70;99.90
4699;DHT22;33708;49.466;11.176;2023-02-01T05:10:05;4.70;99.90
4699;DHT22;33708;49.466;11.176;2023-02-01T05:12:31;4.80;99.90
4699;DHT22;33708;49.466;11.176;2023-02-01T05:15:15;4.80;99.90
4699;DHT22;33708;49.466;11.176;2023-02-01T05:17:41;4.70;99.90
4699;DHT22;33708;49.466;11.176;2023-02-01T05:20:08;4.70;99.90
4699;DHT22;33708;49.466;11.176;2023-02-01T05:22:35;4.60;99.90
4699;DHT22;33708;49.466;11.176;2023-02-01T05:25:01;4.60;99.90
4699;DHT22;33708;49.466;11.176;2023-02-01T05:27:29;4.60;99.90
4699;DHT22;33708;49.466;11.176;2023-02-01T05:29:55;4.50;99.90
4699;DHT22;33708;49.466;11.176;2023-02-01T05:32:21;4.50;99.90
4699;DHT22;33708;49.466;11.176;2023-02-01T05:34:47;4.50;99.90
4699;DHT22;33708;49.466;11.176;2023-02-01T05:37:12;4.50;99.90
4699;DHT22;33708;49.466;11.176;2023-02-01T05:39:38;4.30;99.90
4699;DHT22;33708;49.466;11.176;2023-02-01T05:42:03;4.30;99.90
4699;DHT22;33708;49.466;11.176;2023-02-01T05:44:29;4.20;99.90
4699;DHT22;33708;49.466;11.176;2023-02-01T05:46:55;4.10;99.90
4699;DHT22;33708;49.466;11.176;2023-02-01T05:49:20;4.20;99.90
4699;DHT22;33708;49.466;11.176;2023-02-01T05:51:46;4.30;99.90
4699;DHT22;33708;49.466;11.176;2023-02-01T05:54:11;4.30;99.90
4699;DHT22;33708;49.466;11.176;2023-02-01T05:56:37;4.40;99.90
4699;DHT22;33708;49.466;11.176;2023-02-01T05:59:03;4.40;99.90
4699;DHT22;33708;49.466;11.176;2023-02-01T06:01:28;4.30;99.90
4699;DHT22;33708;49.466;11.176;2023-02-01T06:03:54;4.30;99.90
4699;DHT22;33708;49.466;11.176;2023-02-01T06:06:19;4.40;99.90
4699;DHT22;33708;49.466;11.176;2023-02-01T06:08:45;4.40;99.90
4699;DHT22;33708;49.466;11.176;2023-02-01T06:11:11;4.40;99.90
4699;DHT22;33708;49.466;11.176;2023-02-01T06:13:38;4.20;99.90
4699;DHT22;33708;49.466;11.176;2023-02-01T06:16:04;4.20;99.90
4699;DHT22;33708;49.466;11.176;2023-02-01T06:18:33;4.30;99.90
4699;DHT22;33708;49.466;11.176;2023-02-01T06:20:59;4.10;99.90
4699;DHT22;33708;49.466;11.176;2023-02-01T06:23:26;4.10;99.90
4699;DHT22;33708;49.466;11.176;2023-02-01T06:25:52;4.00;99.90
4699;DHT22;33708;49.466;11.176;2023-02-01T06:28:23;4.00;99.90
4699;DHT22;33708;49.466;11.176;2023-02-01T06:30:49;4.10;99.90
4699;DHT22;33708;49.466;11.176;2023-02-01T06:33:15;4.10;99.90
4699;DHT22;33708;49.466;11.176;2023-02-01T06:35:43;4.10;99.90
4699;DHT22;33708;49.466;11.176;2023-02-01T06:38:10;4.10;99.90
4699;DHT22;33708;49.466;11.176;2023-02-01T06:40:37;4.30;99.90
4699;DHT22;33708;49.466;11.176;2023-02-01T06:43:02;4.30;99.90
4699;DHT22;33708;49.466;11.176;2023-02-01T06:45:28;4.30;99.90
4699;DHT22;33708;49.466;11.176;2023-02-01T06:47:54;4.40;99.90
4699;DHT22;33708;49.466;11.176;2023-02-01T06:50:19;4.30;99.90
4699;DHT22;33708;49.466;11.176;2023-02-01T06:52:45;4.40;99.90
4699;DHT22;33708;49.466;11.176;2023-02-01T06:55:11;4.40;99.90
4699;DHT22;33708;49.466;11.176;2023-02-01T06:57:36;4.40;99.90
4699;DHT22;33708;49.466;11.176;2023-02-01T07:00:03;4.50;99.90
4699;DHT22;33708;49.466;11.176;2023-02-01T07:02:29;4.50;99.90
4699;DHT22;33708;49.466;11.176;2023-02-01T07:04:55;4.60;99.90
4699;DHT22;33708;49.466;11.176;2023-02-01T07:07:20;4.60;99.90
4699;DHT22;33708;49.466;11.176;2023-02-01T07:09:51;4.60;99.90
4699;DHT22;33708;49.466;11.176;2023-02-01T07:12:16;4.70;99.90
4699;DHT22;33708;49.466;11.176;2023-02-01T07:14:42;4.70;99.90
4699;DHT22;33708;49.466;11.176;2023-02-01T07:17:08;4.60;99.90
4699;DHT22;33708;49.466;11.176;2023-02-01T07:19:34;4.60;99.90
4699;DHT22;33708;49.466;11.176;2023-02-01T07:21:59;4.50;99.90
4699;DHT22;33708;49.466;11.176;2023-02-01T07:24:25;4.60;99.90
4699;DHT22;33708;49.466;11.176;2023-02-01T07:26:50;4.50;99.90
4699;DHT22;33708;49.466;11.176;2023-02-01T07:29:17;4.60;99.90
4699;DHT22;33708;49.466;11.176;2023-02-01T07:31:43;4.50;99.90
4699;DHT22;33708;49.466;11.176;2023-02-01T07:34:09;4.60;99.90
4699;DHT22;33708;49.466;11.176;2023-02-01T07:36:34;4.70;99.90
4699;DHT22;33708;49.466;11.176;2023-02-01T07:39:03;4.70;99.90
4699;DHT22;33708;49.466;11.176;2023-02-01T07:41:28;4.70;99.90
4699;DHT22;33708;49.466;11.176;2023-02-01T07:43:54;4.80;99.90
4699;DHT22;33708;49.466;11.176;2023-02-01T07:46:20;4.70;99.90
4699;DHT22;33708;49.466;11.176;2023-02-01T07:48:46;4.80;99.90
4699;DHT22;33708;49.466;11.176;2023-02-01T07:51:14;4.80;99.90
4699;DHT22;33708;49.466;11.176;2023-02-01T07:53:40;4.90;99.90
4699;DHT22;33708;49.466;11.176;2023-02-01T07:56:16;5.10;99.90
4699;DHT22;33708;49.466;11.176;2023-02-01T07:58:42;5.10;99.90
4699;DHT22;33708;49.466;11.176;2023-02-01T08:01:20;5.10;99.90
4699;DHT22;33708;49.466;11.176;2023-02-01T08:03:57;5.20;99.90
4699;DHT22;33708;49.466;11.176;2023-02-01T08:06:24;5.20;99.90
4699;DHT22;33708;49.466;11.176;2023-02-01T08:08:51;5.30;99.90
4699;DHT22;33708;49.466;11.176;2023-02-01T08:11:18;5.40;99.90
4699;DHT22;33708;49.466;11.176;2023-02-01T08:13:44;5.50;99.90
4699;DHT22;33708;49.466;11.176;2023-02-01T08:16:11;5.90;99.90
4699;DHT22;33708;49.466;11.176;2023-02-01T08:18:38;6.40;99.90
4699;DHT22;33708;49.466;11.176;2023-02-01T08:21:09;6.40;99.90
4699;DHT22;33708;49.466;11.176;2023-02-01T08:23:36;6.40;99.90
4699;DHT22;33708;49.466;11.176;2023-02-01T08:26:23;6.20;99.90
4699;DHT22;33708;49.466;11.176;2023-02-01T08:28:52;5.90;99.90
4699;DHT22;33708;49.466;11.176;2023-02-01T08:31:20;5.90;99.90
4699;DHT22;33708;49.466;11.176;2023-02-01T08:33:52;5.90;99.90
4699;DHT22;33708;49.466;11.176;2023-02-01T08:36:18;5.90;99.90
4699;DHT22;33708;49.466;11.176;2023-02-01T08:38:44;5.90;99.90
4699;DHT22;33708;49.466;11.176;2023-02-01T08:41:13;5.60;99.90
4699;DHT22;33708;49.466;11.176;2023-02-01T08:43:39;5.70;99.90
4699;DHT22;33708;49.466;11.176;2023-02-01T08:46:05;5.80;99.90
4699;DHT22;33708;49.466;11.176;2023-02-01T08:48:32;5.70;99.90
4699;DHT22;33708;49.466;11.176;2023-02-01T08:51:05;5.90;99.90
4699;DHT22;33708;49.466;11.176;2023-02-01T08:53:31;6.00;99.90
4699;DHT22;33708;49.466;11.176;2023-02-01T08:55:57;6.50;99.90
4699;DHT22;33708;49.466;11.176;2023-02-01T08:58:22;6.60;99.90
4699;DHT22;33708;49.466;11.176;2023-02-01T09:00:48;6.60;99.90
4699;DHT22;33708;49.466;11.176;2023-02-01T09:03:15;6.80;99.90
4699;DHT22;33708;49.466;11.176;2023-02-01T09:05:41;6.70;99.90
4699;DHT22;33708;49.466;11.176;2023-02-01T09:08:07;6.50;99.90
4699;DHT22;33708;49.466;11.176;2023-02-01T09:10:34;6.20;99.90
4699;DHT22;33708;49.466;11.176;2023-02-01T09:13:00;6.20;99.90
4699;DHT22;33708;49.466;11.176;2023-02-01T09:15:25;6.10;99.90
4699;DHT22;33708;49.466;11.176;2023-02-01T09:17:51;6.10;99.90
4699;DHT22;33708;49.466;11.176;2023-02-01T09:20:17;6.00;99.90
4699;DHT22;33708;49.466;11.176;2023-02-01T09:22:44;6.10;99.90
4699;DHT22;33708;49.466;11.176;2023-02-01T09:25:09;6.00;99.90
4699;DHT22;33708;49.466;11.176;2023-02-01T09:27:35;5.90;99.90
4699;DHT22;33708;49.466;11.176;2023-02-01T09:30:01;5.70;99.90
4699;DHT22;33708;49.466;11.176;2023-02-01T09:32:27;5.80;99.90
4699;DHT22;33708;49.466;11.176;2023-02-01T09:34:53;5.90;99.90
4699;DHT22;33708;49.466;11.176;2023-02-01T09:37:19;5.80;99.90
4699;DHT22;33708;49.466;11.176;2023-02-01T09:39:45;5.80;99.90
4699;DHT22;33708;49.466;11.176;2023-02-01T09:47:48;5.30;99.90
4699;DHT22;33708;49.466;11.176;2023-02-01T09:50:18;5.20;99.90
4699;DHT22;33708;49.466;11.176;2023-02-01T09:52:57;5.40;99.90
4699;DHT22;33708;49.466;11.176;2023-02-01T09:55:36;5.50;99.90
4699;DHT22;33708;49.466;11.176;2023-02-01T09:58:24;5.70;99.90
4699;DHT22;33708;49.466;11.176;2023-02-01T10:00:59;5.80;99.90
4699;DHT22;33708;49.466;11.176;2023-02-01T10:03:28;5.90;99.90
4699;DHT22;33708;49.466;11.176;2023-02-01T10:12:04;6.40;99.90
4699;DHT22;33708;49.466;11.176;2023-02-01T10:14:54;6.40;99.90
4699;DHT22;33708;49.466;11.176;2023-02-01T10:22:46;6.20;99.90
4699;DHT22;33708;49.466;11.176;2023-02-01T10:27:56;5.90;99.90
4699;DHT22;33708;49.466;11.176;2023-02-01T10:30:24;5.90;99.90
4699;DHT22;33708;49.466;11.176;2023-02-01T10:33:07;5.80;99.90
4699;DHT22;33708;49.466;11.176;2023-02-01T10:35:38;5.80;99.90
4699;DHT22;33708;49.466;11.176;2023-02-01T10:38:11;5.90;99.90
4699;DHT22;33708;49.466;11.176;2023-02-01T10:40:41;6.00;99.90
4699;DHT22;33708;49.466;11.176;2023-02-01T10:43:09;6.00;99.90
4699;DHT22;33708;49.466;11.176;2023-02-01T10:45:35;6.00;99.90
4699;DHT22;33708;49.466;11.176;2023-02-01T10:48:03;6.00;99.90
4699;DHT22;33708;49.466;11.176;2023-02-01T10:53:28;6.10;99.90
4699;DHT22;33708;49.466;11.176;2023-02-01T10:55:55;5.90;99.90
4699;DHT22;33708;49.466;11.176;2023-02-01T10:58:28;5.90;99.90
4699;DHT22;33708;49.466;11.176;2023-02-01T11:01:06;6.00;99.90
4699;DHT22;33708;49.466;11.176;2023-02-01T11:06:10;6.40;99.90
4699;DHT22;33708;49.466;11.176;2023-02-01T11:08:44;6.30;99.90
4699;DHT22;33708;49.466;11.176;2023-02-01T11:11:11;6.30;99.90
4699;DHT22;33708;49.466;11.176;2023-02-01T11:13:39;6.10;99.90
4699;DHT22;33708;49.466;11.176;2023-02-01T11:16:05;5.80;99.90
4699;DHT22;33708;49.466;11.176;2023-02-01T11:18:35;5.70;99.90
4699;DHT22;33708;49.466;11.176;2023-02-01T11:21:02;5.50;99.90
4699;DHT22;33708;49.466;11.176;2023-02-01T11:23:30;5.40;99.90
4699;DHT22;33708;49.466;11.176;2023-02-01T11:26:23;5.70;99.90
4699;DHT22;33708;49.466;11.176;2023-02-01T11:29:04;5.60;99.90
4699;DHT22;33708;49.466;11.176;2023-02-01T11:31:32;5.80;99.90
4699;DHT22;33708;49.466;11.176;2023-02-01T11:34:14;5.90;99.90
4699;DHT22;33708;49.466;11.176;2023-02-01T11:36:41;5.90;99.90
4699;DHT22;33708;49.466;11.176;2023-02-01T11:39:14;5.90;99.90
4699;DHT22;33708;49.466;11.176;2023-02-01T11:41:43;6.00;99.90
4699;DHT22;33708;49.466;11.176;2023-02-01T11:44:42;6.00;99.90
4699;DHT22;33708;49.466;11.176;2023-02-01T11:47:30;6.10;99.90
4699;DHT22;33708;49.466;11.176;2023-02-01T11:49:59;6.10;99.90
4699;DHT22;33708;49.466;11.176;2023-02-01T11:52:39;6.00;99.90
4699;DHT22;33708;49.466;11.176;2023-02-01T11:55:25;6.00;99.90
4699;DHT22;33708;49.466;11.176;2023-02-01T12:06:47;6.20;99.90
4699;DHT22;33708;49.466;11.176;2023-02-01T12:09:36;6.20;99.90
4699;DHT22;33708;49.466;11.176;2023-02-01T12:12:17;6.10;99.90
4699;DHT22;33708;49.466;11.176;2023-02-01T12:26:03;6.00;99.90
4699;DHT22;33708;49.466;11.176;2023-02-01T12:36:49;6.10;99.90
4699;DHT22;33708;49.466;11.176;2023-02-01T12:39:45;6.10;99.90
4699;DHT22;33708;49.466;11.176;2023-02-01T12:42:26;6.00;99.90
4699;DHT22;33708;49.466;11.176;2023-02-01T12:45:13;6.00;99.90
4699;DHT22;33708;49.466;11.176;2023-02-01T12:47:44;6.00;99.90
4699;DHT22;33708;49.466;11.176;2023-02-01T12:50:19;6.10;99.90
4699;DHT22;33708;49.466;11.176;2023-02-01T12:52:51;5.90;99.90
4699;DHT22;33708;49.466;11.176;2023-02-01T12:55:24;6.00;99.90
4699;DHT22;33708;49.466;11.176;2023-02-01T13:00:36;6.00;99.90
4699;DHT22;33708;49.466;11.176;2023-02-01T13:06:15;6.00;99.90
4699;DHT22;33708;49.466;11.176;2023-02-01T13:11:34;6.20;99.90
4699;DHT22;33708;49.466;11.176;2023-02-01T13:16:47;5.90;99.90
4699;DHT22;33708;49.466;11.176;2023-02-01T13:21:58;6.00;99.90
4699;DHT22;33708;49.466;11.176;2023-02-01T13:26:55;5.90;99.90
4699;DHT22;33708;49.466;11.176;2023-02-01T13:29:23;5.90;99.90
4699;DHT22;33708;49.466;11.176;2023-02-01T13:35:03;5.60;99.90
4699;DHT22;33708;49.466;11.176;2023-02-01T13:42:57;5.70;99.90
4699;DHT22;33708;49.466;11.176;2023-02-01T13:45:27;5.70;99.90
4699;DHT22;33708;49.466;11.176;2023-02-01T13:47:57;5.60;99.90
4699;DHT22;33708;49.466;11.176;2023-02-01T13:50:30;5.70;99.90
4699;DHT22;33708;49.466;11.176;2023-02-01T13:56:18;5.80;99.90
4699;DHT22;33708;49.466;11.176;2023-02-01T13:58:46;6.00;99.90
4699;DHT22;33708;49.466;11.176;2023-02-01T14:03:47;6.00;99.90
4699;DHT22;33708;49.466;11.176;2023-02-01T14:11:41;6.00;99.90
4699;DHT22;33708;49.466;11.176;2023-02-01T14:19:20;6.20;99.90
4699;DHT22;33708;49.466;11.176;2023-02-01T14:21:52;6.00;99.90
4699;DHT22;33708;49.466;11.176;2023-02-01T14:26:52;6.00;99.90
4699;DHT22;33708;49.466;11.176;2023-02-01T14:32:20;6.00;99.90
4699;DHT22;33708;49.466;11.176;2023-02-01T14:42:19;6.00;99.90
4699;DHT22;33708;49.466;11.176;2023-02-01T14:44:47;6.00;99.90
4699;DHT22;33708;49.466;11.176;2023-02-01T14:50:03;5.90;99.90
4699;DHT22;33708;49.466;11.176;2023-02-01T15:03:53;5.80;99.90
4699;DHT22;33708;49.466;11.176;2023-02-01T15:06:39;5.80;99.90
4699;DHT22;33708;49.466;11.176;2023-02-01T15:11:57;5.70;99.90
4699;DHT22;33708;49.466;11.176;2023-02-01T15:14:24;5.70;99.90
4699;DHT22;33708;49.466;11.176;2023-02-01T15:16:51;5.80;99.90
4699;DHT22;33708;49.466;11.176;2023-02-01T15:19:22;5.80;99.90
4699;DHT22;33708;49.466;11.176;2023-02-01T15:21:50;5.90;99.90
4699;DHT22;33708;49.466;11.176;2023-02-01T15:24:25;5.80;99.90
4699;DHT22;33708;49.466;11.176;2023-02-01T15:26:52;5.70;99.90
4699;DHT22;33708;49.466;11.176;2023-02-01T15:29:20;5.70;99.90
4699;DHT22;33708;49.466;11.176;2023-02-01T15:31:49;5.70;99.90
4699;DHT22;33708;49.466;11.176;2023-02-01T15:34:15;5.70;99.90
4699;DHT22;33708;49.466;11.176;2023-02-01T15:36:42;5.80;99.90
4699;DHT22;33708;49.466;11.176;2023-02-01T15:39:26;5.70;99.90
4699;DHT22;33708;49.466;11.176;2023-02-01T15:41:57;5.70;99.90
4699;DHT22;33708;49.466;11.176;2023-02-01T15:44:40;5.70;99.90
4699;DHT22;33708;49.466;11.176;2023-02-01T15:47:18;5.60;99.90
4699;DHT22;33708;49.466;11.176;2023-02-01T15:49:52;5.70;99.90
4699;DHT22;33708;49.466;11.176;2023-02-01T15:52:39;5.70;99.90
4699;DHT22;33708;49.466;11.176;2023-02-01T15:55:17;5.70;99.90
4699;DHT22;33708;49.466;11.176;2023-02-01T15:57:44;5.60;99.90
4699;DHT22;33708;49.466;11.176;2023-02-01T16:00:23;5.70;99.90
4699;DHT22;33708;49.466;11.176;2023-02-01T16:03:01;5.60;99.90
4699;DHT22;33708;49.466;11.176;2023-02-01T16:05:37;5.70;99.90
4699;DHT22;33708;49.466;11.176;2023-02-01T16:08:13;5.70;99.90
4699;DHT22;33708;49.466;11.176;2023-02-01T16:10:41;5.60;99.90
4699;DHT22;33708;49.466;11.176;2023-02-01T16:13:08;5.70;99.90
4699;DHT22;33708;49.466;11.176;2023-02-01T16:15:33;5.70;99.90
4699;DHT22;33708;49.466;11.176;2023-02-01T16:17:59;5.70;99.90
4699;DHT22;33708;49.466;11.176;2023-02-01T16:20:25;5.50;99.90
4699;DHT22;33708;49.466;11.176;2023-02-01T16:22:50;5.60;99.90
4699;DHT22;33708;49.466;11.176;2023-02-01T16:25:16;5.70;99.90
4699;DHT22;33708;49.466;11.176;2023-02-01T16:27:42;5.60;99.90
4699;DHT22;33708;49.466;11.176;2023-02-01T16:30:08;5.60;99.90
4699;DHT22;33708;49.466;11.176;2023-02-01T16:32:36;5.60;99.90
4699;DHT22;33708;49.466;11.176;2023-02-01T16:35:21;5.60;99.90
4699;DHT22;33708;49.466;11.176;2023-02-01T16:37:48;5.60;99.90
4699;DHT22;33708;49.466;11.176;2023-02-01T16:40:15;5.60;99.90
4699;DHT22;33708;49.466;11.176;2023-02-01T16:42:41;5.60;99.90
4699;DHT22;33708;49.466;11.176;2023-02-01T16:45:07;5.60;99.90
4699;DHT22;33708;49.466;11.176;2023-02-01T16:47:34;5.60;99.90
4699;DHT22;33708;49.466;11.176;2023-02-01T16:50:01;5.60;99.90
4699;DHT22;33708;49.466;11.176;2023-02-01T16:52:27;5.60;99.90
4699;DHT22;33708;49.466;11.176;2023-02-01T16:54:53;5.60;99.90
4699;DHT22;33708;49.466;11.176;2023-02-01T16:57:19;5.70;99.90
4699;DHT22;33708;49.466;11.176;2023-02-01T16:59:48;5.70;99.90
4699;DHT22;33708;49.466;11.176;2023-02-01T17:02:15;5.60;99.90
4699;DHT22;33708;49.466;11.176;2023-02-01T17:04:42;5.70;99.90
4699;DHT22;33708;49.466;11.176;2023-02-01T17:07:18;5.60;99.90
4699;DHT22;33708;49.466;11.176;2023-02-01T17:09:44;5.60;99.90
4699;DHT22;33708;49.466;11.176;2023-02-01T17:12:24;5.70;99.90
4699;DHT22;33708;49.466;11.176;2023-02-01T17:14:51;5.60;99.90
4699;DHT22;33708;49.466;11.176;2023-02-01T17:17:18;5.60;99.90
4699;DHT22;33708;49.466;11.176;2023-02-01T17:19:47;5.60;99.90
4699;DHT22;33708;49.466;11.176;2023-02-01T17:22:17;5.60;99.90
4699;DHT22;33708;49.466;11.176;2023-02-01T17:24:43;5.70;99.90
4699;DHT22;33708;49.466;11.176;2023-02-01T17:27:09;5.70;99.90
4699;DHT22;33708;49.466;11.176;2023-02-01T17:29:34;5.60;99.90
4699;DHT22;33708;49.466;11.176;2023-02-01T17:32:00;5.70;99.90
4699;DHT22;33708;49.466;11.176;2023-02-01T17:34:26;5.60;99.90
4699;DHT22;33708;49.466;11.176;2023-02-01T17:36:52;5.70;99.90
4699;DHT22;33708;49.466;11.176;2023-02-01T17:39:18;5.70;99.90
4699;DHT22;33708;49.466;11.176;2023-02-01T17:42:04;5.70;99.90
4699;DHT22;33708;49.466;11.176;2023-02-01T17:44:30;5.70;99.90
4699;DHT22;33708;49.466;11.176;2023-02-01T17:46:56;5.60;99.90
4699;DHT22;33708;49.466;11.176;2023-02-01T17:49:24;5.70;99.90
4699;DHT22;33708;49.466;11.176;2023-02-01T17:51:49;5.60;99.90
4699;DHT22;33708;49.466;11.176;2023-02-01T17:54:16;5.70;99.90
4699;DHT22;33708;49.466;11.176;2023-02-01T17:56:44;5.60;99.90
4699;DHT22;33708;49.466;11.176;2023-02-01T17:59:10;5.60;99.90
4699;DHT22;33708;49.466;11.176;2023-02-01T18:01:36;5.70;99.90
4699;DHT22;33708;49.466;11.176;2023-02-01T18:04:02;5.70;99.90
4699;DHT22;33708;49.466;11.176;2023-02-01T18:06:33;5.70;99.90
4699;DHT22;33708;49.466;11.176;2023-02-01T18:08:59;5.80;99.90
4699;DHT22;33708;49.466;11.176;2023-02-01T18:11:25;5.70;99.90
4699;DHT22;33708;49.466;11.176;2023-02-01T18:13:52;5.70;99.90
4699;DHT22;33708;49.466;11.176;2023-02-01T18:16:23;5.70;99.90
4699;DHT22;33708;49.466;11.176;2023-02-01T18:18:50;5.70;99.90
4699;DHT22;33708;49.466;11.176;2023-02-01T18:21:17;5.60;99.90
4699;DHT22;33708;49.466;11.176;2023-02-01T18:23:44;5.60;99.90
4699;DHT22;33708;49.466;11.176;2023-02-01T18:26:17;5.70;99.90
4699;DHT22;33708;49.466;11.176;2023-02-01T18:28:43;5.60;99.90